Notice: Undefined index: language in D:\xampp\htdocs\vam\index.php on line 25
Open Air Virtual

 METAR AND TAF INFORMATION
METAR FOR ENNM
ADDS - METARS form results

(1324 UTC 04 June 2020)
Data provider http://aviationweather.gov/metar/data/
 
METAR text: ENNM 041250Z 11017G28KT CAVOK 19/06 Q1001
Conditions at: ENNM (NAMSOS AIRPORT , NO) observed 1250 UTC 04 June 2020
Temperature: 19.0°C (66°F)
Dewpoint: 6.0°C (43°F) [RH = 43%]
Pressure (altimeter): 29.56 inches Hg (1001.0 mb)
Winds: from the ESE (110 degrees) at 20 MPH (17 knots; 8.7 m/s)
gusting to 32 MPH (28 knots; 14.4 m/s)
Visibility: 6 or more miles (10+ km)
Ceiling: ceiling and visibility are OK
Clouds: unknown
Weather: no significant weather observed at this time

 AIRPORT MAP

 RUNWAY INFORMATION
Runway 07 Runway length 2749 ft Runway width 0 ft
Runway elevation 7 ft Runway displaced threshold 0 ft Runway heading 0
Runway 25 Runway length 2749 ft Runway width 0 ft
Runway elevation 7 ft Runway displaced threshold 0 ft Runway heading 0

 AIRPORT FREQUENCIES

 AIRPORT NEAR NAVIGATION AIDS
Type NDB Name Namsos Frequency 329 KHZ



Powered by Virtual Airlines Manager [v2.6.2]